Accueil
METAR-TAF:

METAR-TAF

Aéroports :

Aéroport de Vannes

Vannes, France

latitude: 47-43-19N, longitude: 2-43-41W, altitude: 130 m

Observation

Le bulletin a été fait il y a 26 minutes, à 00:00 UTC
Vent 17 kt de nord
Température 15°C
Humidité 94%
Pression 1021 hPa
Visibilité 10 km ou plus
Nuages fragmentés à une hauteur de 500 ft

METAR: LFRV 210000Z AUTO 01017KT 9999 BKN005 15/14 Q1021

Heure: 02:26 (00:26 UTC)


TAF: absent

Observations et prévisions météorologiques de plus de 4000 aéroports (messages METAR et TAF).

Les stations disponibles sont représentées par des disques jaunes et rouges sur la carte.

Passer la souris dessus pour voir le nom de la station.

Cliquer dessus pour voir les observations et prévisions météorologiques.

Pour changer de carte: cliquez sur les boutons verts avec une croix noire pour zoomer, sur le bouton vert avec un tiret pour effectuer un zoom arrière, ou sur les flèches vertes pour les cartes adjacentes.


METAR-TAF: